sensor_id;sensor_type;location;lat;lon;timestamp;temperature;humidity
10312;DHT22;5201;48.776;9.128;2022-11-04T00:01:08;12.10;99.90
10312;DHT22;5201;48.776;9.128;2022-11-04T00:03:34;12.60;99.90
10312;DHT22;5201;48.776;9.128;2022-11-04T00:06:00;12.80;99.90
10312;DHT22;5201;48.776;9.128;2022-11-04T00:08:26;12.00;99.90
10312;DHT22;5201;48.776;9.128;2022-11-04T00:10:56;11.90;99.90
10312;DHT22;5201;48.776;9.128;2022-11-04T00:13:40;11.90;99.90
10312;DHT22;5201;48.776;9.128;2022-11-04T00:16:07;11.90;99.90
10312;DHT22;5201;48.776;9.128;2022-11-04T00:18:51;11.90;99.90
10312;DHT22;5201;48.776;9.128;2022-11-04T00:21:17;12.10;99.90
10312;DHT22;5201;48.776;9.128;2022-11-04T00:24:02;12.20;99.90
10312;DHT22;5201;48.776;9.128;2022-11-04T00:26:46;11.90;99.90
10312;DHT22;5201;48.776;9.128;2022-11-04T00:29:30;11.80;99.90
10312;DHT22;5201;48.776;9.128;2022-11-04T00:31:55;11.80;99.90
10312;DHT22;5201;48.776;9.128;2022-11-04T00:34:39;12.40;99.90
10312;DHT22;5201;48.776;9.128;2022-11-04T00:37:05;11.90;99.90
10312;DHT22;5201;48.776;9.128;2022-11-04T00:39:31;11.90;99.90
10312;DHT22;5201;48.776;9.128;2022-11-04T00:41:56;11.90;99.90
10312;DHT22;5201;48.776;9.128;2022-11-04T00:44:22;11.80;99.90
10312;DHT22;5201;48.776;9.128;2022-11-04T00:46:47;11.70;99.90
10312;DHT22;5201;48.776;9.128;2022-11-04T00:49:13;11.60;99.90
10312;DHT22;5201;48.776;9.128;2022-11-04T00:51:38;11.60;99.90
10312;DHT22;5201;48.776;9.128;2022-11-04T00:54:04;11.70;99.90
10312;DHT22;5201;48.776;9.128;2022-11-04T00:56:30;11.80;99.90
10312;DHT22;5201;48.776;9.128;2022-11-04T00:58:58;11.70;99.90
10312;DHT22;5201;48.776;9.128;2022-11-04T01:01:24;12.10;99.90
10312;DHT22;5201;48.776;9.128;2022-11-04T01:03:51;12.20;99.90
10312;DHT22;5201;48.776;9.128;2022-11-04T01:06:19;11.70;99.90
10312;DHT22;5201;48.776;9.128;2022-11-04T01:08:45;11.70;99.90
10312;DHT22;5201;48.776;9.128;2022-11-04T01:11:11;11.70;99.90
10312;DHT22;5201;48.776;9.128;2022-11-04T01:13:38;11.80;99.90
10312;DHT22;5201;48.776;9.128;2022-11-04T01:16:07;11.80;99.90
10312;DHT22;5201;48.776;9.128;2022-11-04T01:18:33;11.70;99.90
10312;DHT22;5201;48.776;9.128;2022-11-04T01:21:03;11.70;99.90
10312;DHT22;5201;48.776;9.128;2022-11-04T01:23:29;11.80;99.90
10312;DHT22;5201;48.776;9.128;2022-11-04T01:25:55;12.10;99.90
10312;DHT22;5201;48.776;9.128;2022-11-04T01:28:21;12.10;99.90
10312;DHT22;5201;48.776;9.128;2022-11-04T01:30:46;12.40;99.90
10312;DHT22;5201;48.776;9.128;2022-11-04T01:33:12;11.90;99.90
10312;DHT22;5201;48.776;9.128;2022-11-04T01:35:37;12.40;99.90
10312;DHT22;5201;48.776;9.128;2022-11-04T01:38:03;11.90;99.90
10312;DHT22;5201;48.776;9.128;2022-11-04T01:40:29;11.80;99.90
10312;DHT22;5201;48.776;9.128;2022-11-04T01:42:54;11.90;99.90
10312;DHT22;5201;48.776;9.128;2022-11-04T01:45:20;12.00;99.90
10312;DHT22;5201;48.776;9.128;2022-11-04T01:48:06;12.40;99.90
10312;DHT22;5201;48.776;9.128;2022-11-04T01:50:36;11.90;99.90
10312;DHT22;5201;48.776;9.128;2022-11-04T01:53:11;12.10;99.90
10312;DHT22;5201;48.776;9.128;2022-11-04T01:55:43;11.90;99.90
10312;DHT22;5201;48.776;9.128;2022-11-04T01:58:13;12.20;99.90
10312;DHT22;5201;48.776;9.128;2022-11-04T02:00:41;12.10;99.90
10312;DHT22;5201;48.776;9.128;2022-11-04T02:03:14;12.20;99.90
10312;DHT22;5201;48.776;9.128;2022-11-04T02:05:41;12.00;99.90
10312;DHT22;5201;48.776;9.128;2022-11-04T02:08:08;12.30;99.90
10312;DHT22;5201;48.776;9.128;2022-11-04T02:10:35;11.90;99.90
10312;DHT22;5201;48.776;9.128;2022-11-04T02:13:03;12.00;99.90
10312;DHT22;5201;48.776;9.128;2022-11-04T02:15:34;12.00;99.90
10312;DHT22;5201;48.776;9.128;2022-11-04T02:18:15;13.10;99.90
10312;DHT22;5201;48.776;9.128;2022-11-04T02:21:04;11.70;99.90
10312;DHT22;5201;48.776;9.128;2022-11-04T02:23:54;11.70;99.90
10312;DHT22;5201;48.776;9.128;2022-11-04T02:32:14;11.40;99.90
10312;DHT22;5201;48.776;9.128;2022-11-04T02:35:07;11.40;99.90
10312;DHT22;5201;48.776;9.128;2022-11-04T02:38:01;11.40;99.90
10312;DHT22;5201;48.776;9.128;2022-11-04T02:40:59;11.40;99.90
10312;DHT22;5201;48.776;9.128;2022-11-04T02:48:59;11.40;99.90
10312;DHT22;5201;48.776;9.128;2022-11-04T02:51:34;11.20;99.90
10312;DHT22;5201;48.776;9.128;2022-11-04T02:54:05;11.70;99.90
10312;DHT22;5201;48.776;9.128;2022-11-04T02:56:36;11.40;99.90
10312;DHT22;5201;48.776;9.128;2022-11-04T02:59:06;11.00;99.90
10312;DHT22;5201;48.776;9.128;2022-11-04T03:01:36;11.10;99.90
10312;DHT22;5201;48.776;9.128;2022-11-04T03:04:13;11.20;99.90
10312;DHT22;5201;48.776;9.128;2022-11-04T03:06:42;11.30;99.90
10312;DHT22;5201;48.776;9.128;2022-11-04T03:09:11;11.30;99.90
10312;DHT22;5201;48.776;9.128;2022-11-04T03:11:40;11.40;99.90
10312;DHT22;5201;48.776;9.128;2022-11-04T03:14:16;11.40;99.90
10312;DHT22;5201;48.776;9.128;2022-11-04T03:16:52;11.40;99.90
10312;DHT22;5201;48.776;9.128;2022-11-04T03:22:04;11.30;99.90
10312;DHT22;5201;48.776;9.128;2022-11-04T03:24:31;11.20;99.90
10312;DHT22;5201;48.776;9.128;2022-11-04T03:30:05;11.30;99.90
10312;DHT22;5201;48.776;9.128;2022-11-04T03:35:05;11.30;99.90
10312;DHT22;5201;48.776;9.128;2022-11-04T03:37:31;11.10;99.90
10312;DHT22;5201;48.776;9.128;2022-11-04T03:39:57;12.00;99.90
10312;DHT22;5201;48.776;9.128;2022-11-04T03:42:24;11.10;99.90
10312;DHT22;5201;48.776;9.128;2022-11-04T03:44:55;11.90;99.90
10312;DHT22;5201;48.776;9.128;2022-11-04T03:47:26;11.30;99.90
10312;DHT22;5201;48.776;9.128;2022-11-04T03:50:05;11.30;99.90
10312;DHT22;5201;48.776;9.128;2022-11-04T03:52:31;11.30;99.90
10312;DHT22;5201;48.776;9.128;2022-11-04T03:54:57;11.30;99.90
10312;DHT22;5201;48.776;9.128;2022-11-04T03:57:45;11.30;99.90
10312;DHT22;5201;48.776;9.128;2022-11-04T04:00:19;11.10;99.90
10312;DHT22;5201;48.776;9.128;2022-11-04T04:03:04;11.10;99.90
10312;DHT22;5201;48.776;9.128;2022-11-04T04:05:42;11.20;99.90
10312;DHT22;5201;48.776;9.128;2022-11-04T04:11:18;11.20;99.90
10312;DHT22;5201;48.776;9.128;2022-11-04T04:14:00;11.20;99.90
10312;DHT22;5201;48.776;9.128;2022-11-04T04:16:43;11.30;99.90
10312;DHT22;5201;48.776;9.128;2022-11-04T04:19:15;11.40;99.90
10312;DHT22;5201;48.776;9.128;2022-11-04T04:21:53;11.80;99.90
10312;DHT22;5201;48.776;9.128;2022-11-04T04:24:24;11.50;99.90
10312;DHT22;5201;48.776;9.128;2022-11-04T04:27:10;12.50;99.90
10312;DHT22;5201;48.776;9.128;2022-11-04T04:29:54;11.40;99.90
10312;DHT22;5201;48.776;9.128;2022-11-04T04:32:23;11.00;99.90
10312;DHT22;5201;48.776;9.128;2022-11-04T04:34:49;10.90;99.90
10312;DHT22;5201;48.776;9.128;2022-11-04T04:37:19;11.50;99.90
10312;DHT22;5201;48.776;9.128;2022-11-04T04:39:52;10.80;99.90
10312;DHT22;5201;48.776;9.128;2022-11-04T04:42:36;10.80;99.90
10312;DHT22;5201;48.776;9.128;2022-11-04T04:45:32;10.70;99.90
10312;DHT22;5201;48.776;9.128;2022-11-04T04:47:59;10.70;99.90
10312;DHT22;5201;48.776;9.128;2022-11-04T04:50:27;10.70;99.90
10312;DHT22;5201;48.776;9.128;2022-11-04T04:52:56;10.70;99.90
10312;DHT22;5201;48.776;9.128;2022-11-04T04:55:23;10.60;99.90
10312;DHT22;5201;48.776;9.128;2022-11-04T04:57:48;10.80;99.90
10312;DHT22;5201;48.776;9.128;2022-11-04T05:00:17;10.80;99.90
10312;DHT22;5201;48.776;9.128;2022-11-04T05:02:44;10.70;99.90
10312;DHT22;5201;48.776;9.128;2022-11-04T05:05:11;10.80;99.90
10312;DHT22;5201;48.776;9.128;2022-11-04T05:07:38;11.20;99.90
10312;DHT22;5201;48.776;9.128;2022-11-04T05:10:04;10.70;99.90
10312;DHT22;5201;48.776;9.128;2022-11-04T05:12:30;10.50;99.90
10312;DHT22;5201;48.776;9.128;2022-11-04T05:15:16;10.30;99.90
10312;DHT22;5201;48.776;9.128;2022-11-04T05:17:41;10.40;99.90
10312;DHT22;5201;48.776;9.128;2022-11-04T05:20:08;10.40;99.90
10312;DHT22;5201;48.776;9.128;2022-11-04T05:22:33;10.40;99.90
10312;DHT22;5201;48.776;9.128;2022-11-04T05:24:59;10.30;99.90
10312;DHT22;5201;48.776;9.128;2022-11-04T05:27:25;10.30;99.90
10312;DHT22;5201;48.776;9.128;2022-11-04T05:29:50;10.50;99.90
10312;DHT22;5201;48.776;9.128;2022-11-04T05:32:16;11.70;99.90
10312;DHT22;5201;48.776;9.128;2022-11-04T05:34:41;11.00;99.90
10312;DHT22;5201;48.776;9.128;2022-11-04T05:37:07;10.30;99.90
10312;DHT22;5201;48.776;9.128;2022-11-04T05:39:33;10.30;99.90
10312;DHT22;5201;48.776;9.128;2022-11-04T05:41:59;10.60;99.90
10312;DHT22;5201;48.776;9.128;2022-11-04T05:44:25;11.50;99.90
10312;DHT22;5201;48.776;9.128;2022-11-04T05:46:51;10.60;99.90
10312;DHT22;5201;48.776;9.128;2022-11-04T05:49:16;10.50;99.90
10312;DHT22;5201;48.776;9.128;2022-11-04T05:51:42;10.20;99.90
10312;DHT22;5201;48.776;9.128;2022-11-04T05:54:08;10.00;99.90
10312;DHT22;5201;48.776;9.128;2022-11-04T05:56:35;10.00;99.90
10312;DHT22;5201;48.776;9.128;2022-11-04T05:59:00;9.80;99.90
10312;DHT22;5201;48.776;9.128;2022-11-04T06:03:54;9.80;99.90
10312;DHT22;5201;48.776;9.128;2022-11-04T06:06:21;9.80;99.90
10312;DHT22;5201;48.776;9.128;2022-11-04T06:08:47;10.10;99.90
10312;DHT22;5201;48.776;9.128;2022-11-04T06:11:13;10.10;99.90
10312;DHT22;5201;48.776;9.128;2022-11-04T06:13:39;10.30;99.90
10312;DHT22;5201;48.776;9.128;2022-11-04T06:16:05;10.50;99.90
10312;DHT22;5201;48.776;9.128;2022-11-04T06:18:30;10.50;99.90
10312;DHT22;5201;48.776;9.128;2022-11-04T06:23:43;10.40;99.90
10312;DHT22;5201;48.776;9.128;2022-11-04T06:26:10;10.30;99.90
10312;DHT22;5201;48.776;9.128;2022-11-04T06:28:36;10.30;99.90
10312;DHT22;5201;48.776;9.128;2022-11-04T06:31:04;10.30;99.90
10312;DHT22;5201;48.776;9.128;2022-11-04T06:33:30;10.20;99.90
10312;DHT22;5201;48.776;9.128;2022-11-04T06:35:59;10.10;99.90
10312;DHT22;5201;48.776;9.128;2022-11-04T06:38:25;10.30;99.90
10312;DHT22;5201;48.776;9.128;2022-11-04T06:40:51;10.30;99.90
10312;DHT22;5201;48.776;9.128;2022-11-04T06:43:16;10.40;99.90
10312;DHT22;5201;48.776;9.128;2022-11-04T06:45:42;10.50;99.90
10312;DHT22;5201;48.776;9.128;2022-11-04T06:48:07;10.50;99.90
10312;DHT22;5201;48.776;9.128;2022-11-04T06:50:33;10.40;99.90
10312;DHT22;5201;48.776;9.128;2022-11-04T06:52:59;10.40;99.90
10312;DHT22;5201;48.776;9.128;2022-11-04T06:55:25;10.40;99.90
10312;DHT22;5201;48.776;9.128;2022-11-04T06:57:50;10.40;99.90
10312;DHT22;5201;48.776;9.128;2022-11-04T07:00:16;10.50;99.90
10312;DHT22;5201;48.776;9.128;2022-11-04T07:02:42;10.40;99.90
10312;DHT22;5201;48.776;9.128;2022-11-04T07:05:08;10.40;99.90
10312;DHT22;5201;48.776;9.128;2022-11-04T07:07:33;10.40;99.90
10312;DHT22;5201;48.776;9.128;2022-11-04T07:09:59;10.50;99.90
10312;DHT22;5201;48.776;9.128;2022-11-04T07:12:25;10.70;99.90
10312;DHT22;5201;48.776;9.128;2022-11-04T07:14:50;10.50;99.90
10312;DHT22;5201;48.776;9.128;2022-11-04T07:17:16;10.50;99.90
10312;DHT22;5201;48.776;9.128;2022-11-04T07:19:42;10.90;99.90
10312;DHT22;5201;48.776;9.128;2022-11-04T07:22:07;11.30;99.90
10312;DHT22;5201;48.776;9.128;2022-11-04T07:24:34;10.50;99.90
10312;DHT22;5201;48.776;9.128;2022-11-04T07:26:59;11.10;99.90
10312;DHT22;5201;48.776;9.128;2022-11-04T07:29:25;10.80;99.90
10312;DHT22;5201;48.776;9.128;2022-11-04T07:31:50;10.60;99.90
10312;DHT22;5201;48.776;9.128;2022-11-04T07:34:16;10.70;99.90
10312;DHT22;5201;48.776;9.128;2022-11-04T07:36:42;10.70;99.90
10312;DHT22;5201;48.776;9.128;2022-11-04T07:39:07;10.70;99.90
10312;DHT22;5201;48.776;9.128;2022-11-04T07:41:33;10.50;99.90
10312;DHT22;5201;48.776;9.128;2022-11-04T07:43:59;10.40;99.90
10312;DHT22;5201;48.776;9.128;2022-11-04T07:46:26;10.40;99.90
10312;DHT22;5201;48.776;9.128;2022-11-04T07:48:52;11.30;99.90
10312;DHT22;5201;48.776;9.128;2022-11-04T07:51:19;10.50;99.90
10312;DHT22;5201;48.776;9.128;2022-11-04T07:53:45;10.50;99.90
10312;DHT22;5201;48.776;9.128;2022-11-04T07:56:11;10.60;99.90
10312;DHT22;5201;48.776;9.128;2022-11-04T07:58:37;10.70;99.90
10312;DHT22;5201;48.776;9.128;2022-11-04T08:01:09;10.70;99.90
10312;DHT22;5201;48.776;9.128;2022-11-04T08:03:36;10.80;99.90
10312;DHT22;5201;48.776;9.128;2022-11-04T08:06:03;11.00;99.90
10312;DHT22;5201;48.776;9.128;2022-11-04T08:08:30;10.90;99.90
10312;DHT22;5201;48.776;9.128;2022-11-04T08:11:02;11.00;99.90
10312;DHT22;5201;48.776;9.128;2022-11-04T08:13:33;11.00;99.90
10312;DHT22;5201;48.776;9.128;2022-11-04T08:16:09;11.60;99.90
10312;DHT22;5201;48.776;9.128;2022-11-04T08:18:36;11.20;99.90
10312;DHT22;5201;48.776;9.128;2022-11-04T08:21:03;11.30;99.90
10312;DHT22;5201;48.776;9.128;2022-11-04T08:23:29;11.20;99.90
10312;DHT22;5201;48.776;9.128;2022-11-04T08:25:55;11.10;99.90
10312;DHT22;5201;48.776;9.128;2022-11-04T08:28:21;11.10;99.90
10312;DHT22;5201;48.776;9.128;2022-11-04T08:30:57;11.70;99.90
10312;DHT22;5201;48.776;9.128;2022-11-04T08:33:23;11.10;99.90
10312;DHT22;5201;48.776;9.128;2022-11-04T08:35:49;11.00;99.90
10312;DHT22;5201;48.776;9.128;2022-11-04T08:38:15;10.90;99.90
10312;DHT22;5201;48.776;9.128;2022-11-04T08:40:41;10.80;99.90
10312;DHT22;5201;48.776;9.128;2022-11-04T08:43:07;10.80;99.90
10312;DHT22;5201;48.776;9.128;2022-11-04T08:45:38;10.70;99.90
10312;DHT22;5201;48.776;9.128;2022-11-04T08:48:04;10.60;99.90
10312;DHT22;5201;48.776;9.128;2022-11-04T08:50:30;10.80;99.90
10312;DHT22;5201;48.776;9.128;2022-11-04T08:52:56;11.30;99.90
10312;DHT22;5201;48.776;9.128;2022-11-04T08:55:22;10.80;99.90
10312;DHT22;5201;48.776;9.128;2022-11-04T08:57:48;11.10;99.90
10312;DHT22;5201;48.776;9.128;2022-11-04T09:00:15;10.80;99.90
10312;DHT22;5201;48.776;9.128;2022-11-04T09:02:42;10.90;99.90
10312;DHT22;5201;48.776;9.128;2022-11-04T09:05:08;11.00;99.90
10312;DHT22;5201;48.776;9.128;2022-11-04T09:07:35;11.00;99.90
10312;DHT22;5201;48.776;9.128;2022-11-04T09:10:02;10.90;99.90
10312;DHT22;5201;48.776;9.128;2022-11-04T09:12:28;10.80;99.90
10312;DHT22;5201;48.776;9.128;2022-11-04T09:14:54;10.70;99.90
10312;DHT22;5201;48.776;9.128;2022-11-04T09:17:19;10.70;99.90
10312;DHT22;5201;48.776;9.128;2022-11-04T09:19:45;10.80;99.90
10312;DHT22;5201;48.776;9.128;2022-11-04T09:22:10;11.20;99.90
10312;DHT22;5201;48.776;9.128;2022-11-04T09:24:36;10.90;99.90
10312;DHT22;5201;48.776;9.128;2022-11-04T09:27:02;11.10;99.90
10312;DHT22;5201;48.776;9.128;2022-11-04T09:29:29;11.10;99.90
10312;DHT22;5201;48.776;9.128;2022-11-04T09:32:01;11.00;99.90
10312;DHT22;5201;48.776;9.128;2022-11-04T09:34:28;11.00;99.90
10312;DHT22;5201;48.776;9.128;2022-11-04T09:36:54;12.30;99.90
10312;DHT22;5201;48.776;9.128;2022-11-04T09:39:20;11.70;99.90
10312;DHT22;5201;48.776;9.128;2022-11-04T09:47:00;11.40;99.90
10312;DHT22;5201;48.776;9.128;2022-11-04T09:49:33;11.30;99.90
10312;DHT22;5201;48.776;9.128;2022-11-04T09:52:03;11.40;99.90
10312;DHT22;5201;48.776;9.128;2022-11-04T09:54:44;12.10;99.90
10312;DHT22;5201;48.776;9.128;2022-11-04T09:57:16;11.30;99.90
10312;DHT22;5201;48.776;9.128;2022-11-04T09:59:42;11.20;99.90
10312;DHT22;5201;48.776;9.128;2022-11-04T10:12:56;11.40;99.90
10312;DHT22;5201;48.776;9.128;2022-11-04T10:18:08;11.60;99.90
10312;DHT22;5201;48.776;9.128;2022-11-04T10:24:17;11.60;99.90
10312;DHT22;5201;48.776;9.128;2022-11-04T10:27:16;11.90;99.90
10312;DHT22;5201;48.776;9.128;2022-11-04T10:29:54;11.90;99.90
10312;DHT22;5201;48.776;9.128;2022-11-04T10:32:24;11.70;99.90
10312;DHT22;5201;48.776;9.128;2022-11-04T10:35:01;11.70;99.90
10312;DHT22;5201;48.776;9.128;2022-11-04T10:37:29;11.70;99.90
10312;DHT22;5201;48.776;9.128;2022-11-04T10:42:39;11.80;99.90
10312;DHT22;5201;48.776;9.128;2022-11-04T10:45:10;11.90;99.90
10312;DHT22;5201;48.776;9.128;2022-11-04T10:47:49;12.10;99.90
10312;DHT22;5201;48.776;9.128;2022-11-04T10:50:19;12.20;99.90
10312;DHT22;5201;48.776;9.128;2022-11-04T10:52:46;12.30;99.90
10312;DHT22;5201;48.776;9.128;2022-11-04T10:55:25;12.50;99.90
10312;DHT22;5201;48.776;9.128;2022-11-04T10:57:56;12.30;99.90
10312;DHT22;5201;48.776;9.128;2022-11-04T11:00:33;12.60;99.90
10312;DHT22;5201;48.776;9.128;2022-11-04T11:02:59;12.60;99.90
10312;DHT22;5201;48.776;9.128;2022-11-04T11:05:24;12.60;99.90
10312;DHT22;5201;48.776;9.128;2022-11-04T11:07:53;12.60;99.90
10312;DHT22;5201;48.776;9.128;2022-11-04T11:10:37;12.70;99.90
10312;DHT22;5201;48.776;9.128;2022-11-04T11:13:04;12.80;99.90
10312;DHT22;5201;48.776;9.128;2022-11-04T11:15:36;12.80;99.90
10312;DHT22;5201;48.776;9.128;2022-11-04T11:20:31;12.80;99.90
10312;DHT22;5201;48.776;9.128;2022-11-04T11:22:59;12.80;99.90
10312;DHT22;5201;48.776;9.128;2022-11-04T11:25:26;12.90;99.90
10312;DHT22;5201;48.776;9.128;2022-11-04T11:27:56;12.80;99.90
10312;DHT22;5201;48.776;9.128;2022-11-04T11:30:38;12.80;99.90
10312;DHT22;5201;48.776;9.128;2022-11-04T11:33:33;12.70;99.90
10312;DHT22;5201;48.776;9.128;2022-11-04T11:36:25;12.50;99.90
10312;DHT22;5201;48.776;9.128;2022-11-04T11:38:59;12.50;99.90
10312;DHT22;5201;48.776;9.128;2022-11-04T11:41:28;12.50;99.90
10312;DHT22;5201;48.776;9.128;2022-11-04T11:44:00;12.60;99.90
10312;DHT22;5201;48.776;9.128;2022-11-04T11:46:31;12.70;99.90
10312;DHT22;5201;48.776;9.128;2022-11-04T11:49:03;12.70;99.90
10312;DHT22;5201;48.776;9.128;2022-11-04T11:51:32;12.70;99.90
10312;DHT22;5201;48.776;9.128;2022-11-04T11:56:59;13.10;99.90
10312;DHT22;5201;48.776;9.128;2022-11-04T12:04:51;13.10;99.90
10312;DHT22;5201;48.776;9.128;2022-11-04T12:07:38;13.00;99.90
10312;DHT22;5201;48.776;9.128;2022-11-04T12:15:35;13.10;99.90
10312;DHT22;5201;48.776;9.128;2022-11-04T12:18:20;13.20;99.90
10312;DHT22;5201;48.776;9.128;2022-11-04T12:21:00;13.20;99.90
10312;DHT22;5201;48.776;9.128;2022-11-04T12:29:38;13.20;99.90
10312;DHT22;5201;48.776;9.128;2022-11-04T12:32:27;13.20;99.90
10312;DHT22;5201;48.776;9.128;2022-11-04T12:38:18;13.30;99.90
10312;DHT22;5201;48.776;9.128;2022-11-04T12:56:57;13.30;99.90
10312;DHT22;5201;48.776;9.128;2022-11-04T12:59:55;13.40;99.90
10312;DHT22;5201;48.776;9.128;2022-11-04T13:07:56;13.70;99.90
10312;DHT22;5201;48.776;9.128;2022-11-04T13:10:38;13.70;99.90
10312;DHT22;5201;48.776;9.128;2022-11-04T13:13:06;13.70;99.90
10312;DHT22;5201;48.776;9.128;2022-11-04T13:15:46;13.80;99.90
10312;DHT22;5201;48.776;9.128;2022-11-04T13:18:17;13.60;99.90
10312;DHT22;5201;48.776;9.128;2022-11-04T13:26:30;13.30;99.90
10312;DHT22;5201;48.776;9.128;2022-11-04T13:29:09;13.30;99.90
10312;DHT22;5201;48.776;9.128;2022-11-04T13:32:01;13.30;99.90
10312;DHT22;5201;48.776;9.128;2022-11-04T13:34:50;13.10;99.90
10312;DHT22;5201;48.776;9.128;2022-11-04T13:40:09;13.30;99.90
10312;DHT22;5201;48.776;9.128;2022-11-04T13:42:51;13.00;99.90
10312;DHT22;5201;48.776;9.128;2022-11-04T13:45:19;12.90;99.90
10312;DHT22;5201;48.776;9.128;2022-11-04T13:47:53;12.70;99.90
10312;DHT22;5201;48.776;9.128;2022-11-04T13:50:30;12.50;99.90
10312;DHT22;5201;48.776;9.128;2022-11-04T13:52:57;12.20;99.90
10312;DHT22;5201;48.776;9.128;2022-11-04T13:55:22;11.70;99.90
10312;DHT22;5201;48.776;9.128;2022-11-04T13:57:52;12.00;99.90
10312;DHT22;5201;48.776;9.128;2022-11-04T14:00:21;11.20;99.90
10312;DHT22;5201;48.776;9.128;2022-11-04T14:02:50;11.10;99.90
10312;DHT22;5201;48.776;9.128;2022-11-04T14:18:45;11.40;99.90
10312;DHT22;5201;48.776;9.128;2022-11-04T14:21:16;11.50;99.90
10312;DHT22;5201;48.776;9.128;2022-11-04T14:23:45;11.50;99.90
10312;DHT22;5201;48.776;9.128;2022-11-04T14:26:21;11.30;99.90
10312;DHT22;5201;48.776;9.128;2022-11-04T14:29:04;11.60;99.90
10312;DHT22;5201;48.776;9.128;2022-11-04T14:31:44;11.50;99.90
10312;DHT22;5201;48.776;9.128;2022-11-04T14:34:33;11.20;99.90
10312;DHT22;5201;48.776;9.128;2022-11-04T14:37:14;11.20;99.90
10312;DHT22;5201;48.776;9.128;2022-11-04T14:39:43;11.30;99.90
10312;DHT22;5201;48.776;9.128;2022-11-04T14:42:13;11.40;99.90
10312;DHT22;5201;48.776;9.128;2022-11-04T14:44:59;11.50;99.90
10312;DHT22;5201;48.776;9.128;2022-11-04T14:47:28;11.60;99.90
10312;DHT22;5201;48.776;9.128;2022-11-04T14:52:27;11.50;99.90
10312;DHT22;5201;48.776;9.128;2022-11-04T14:55:04;11.30;99.90
10312;DHT22;5201;48.776;9.128;2022-11-04T14:57:37;11.20;99.90
10312;DHT22;5201;48.776;9.128;2022-11-04T15:02:48;11.10;99.90
10312;DHT22;5201;48.776;9.128;2022-11-04T15:05:25;10.90;99.90
10312;DHT22;5201;48.776;9.128;2022-11-04T15:07:51;10.90;99.90
10312;DHT22;5201;48.776;9.128;2022-11-04T15:10:27;11.00;99.90
10312;DHT22;5201;48.776;9.128;2022-11-04T15:12:59;11.20;99.90
10312;DHT22;5201;48.776;9.128;2022-11-04T15:15:34;11.70;99.90
10312;DHT22;5201;48.776;9.128;2022-11-04T15:18:07;11.30;99.90
10312;DHT22;5201;48.776;9.128;2022-11-04T15:20:37;11.30;99.90
10312;DHT22;5201;48.776;9.128;2022-11-04T15:23:08;11.30;99.90
10312;DHT22;5201;48.776;9.128;2022-11-04T15:25:43;11.30;99.90
10312;DHT22;5201;48.776;9.128;2022-11-04T15:28:24;11.40;99.90
10312;DHT22;5201;48.776;9.128;2022-11-04T15:31:04;11.40;99.90
10312;DHT22;5201;48.776;9.128;2022-11-04T15:33:34;11.30;99.90
10312;DHT22;5201;48.776;9.128;2022-11-04T15:36:02;11.70;99.90
10312;DHT22;5201;48.776;9.128;2022-11-04T15:38:27;11.40;99.90
10312;DHT22;5201;48.776;9.128;2022-11-04T15:40:56;11.20;99.90
10312;DHT22;5201;48.776;9.128;2022-11-04T15:43:43;11.20;99.90
10312;DHT22;5201;48.776;9.128;2022-11-04T15:46:16;11.30;99.90
10312;DHT22;5201;48.776;9.128;2022-11-04T15:48:42;11.30;99.90
10312;DHT22;5201;48.776;9.128;2022-11-04T15:51:24;11.10;99.90
10312;DHT22;5201;48.776;9.128;2022-11-04T15:56:22;11.20;99.90
10312;DHT22;5201;48.776;9.128;2022-11-04T15:58:48;11.10;99.90
10312;DHT22;5201;48.776;9.128;2022-11-04T16:01:15;11.10;99.90
10312;DHT22;5201;48.776;9.128;2022-11-04T16:03:48;11.40;99.90
10312;DHT22;5201;48.776;9.128;2022-11-04T16:06:14;11.50;99.90
10312;DHT22;5201;48.776;9.128;2022-11-04T16:08:40;11.50;99.90
10312;DHT22;5201;48.776;9.128;2022-11-04T16:11:15;11.40;99.90
10312;DHT22;5201;48.776;9.128;2022-11-04T16:13:41;11.40;99.90
10312;DHT22;5201;48.776;9.128;2022-11-04T16:16:28;11.80;99.90
10312;DHT22;5201;48.776;9.128;2022-11-04T16:18:57;11.70;99.90
10312;DHT22;5201;48.776;9.128;2022-11-04T16:21:34;11.10;99.90
10312;DHT22;5201;48.776;9.128;2022-11-04T16:26:30;11.30;99.90
10312;DHT22;5201;48.776;9.128;2022-11-04T16:28:59;11.20;99.90
10312;DHT22;5201;48.776;9.128;2022-11-04T16:31:27;11.40;99.90
10312;DHT22;5201;48.776;9.128;2022-11-04T16:33:56;11.60;99.90
10312;DHT22;5201;48.776;9.128;2022-11-04T16:36:22;11.70;99.90
10312;DHT22;5201;48.776;9.128;2022-11-04T16:39:08;10.20;99.90
10312;DHT22;5201;48.776;9.128;2022-11-04T16:41:38;11.50;99.90
10312;DHT22;5201;48.776;9.128;2022-11-04T16:44:05;12.40;99.90
10312;DHT22;5201;48.776;9.128;2022-11-04T16:46:39;11.40;99.90
10312;DHT22;5201;48.776;9.128;2022-11-04T16:49:05;11.40;99.90
10312;DHT22;5201;48.776;9.128;2022-11-04T16:51:32;11.30;99.90
10312;DHT22;5201;48.776;9.128;2022-11-04T16:53:57;11.20;99.90
10312;DHT22;5201;48.776;9.128;2022-11-04T16:56:24;11.30;99.90
10312;DHT22;5201;48.776;9.128;2022-11-04T16:58:51;11.50;99.90
10312;DHT22;5201;48.776;9.128;2022-11-04T17:01:17;11.40;99.90
10312;DHT22;5201;48.776;9.128;2022-11-04T17:03:43;12.00;99.90
10312;DHT22;5201;48.776;9.128;2022-11-04T17:06:11;12.70;99.90
10312;DHT22;5201;48.776;9.128;2022-11-04T17:08:37;12.70;99.90
10312;DHT22;5201;48.776;9.128;2022-11-04T17:11:02;11.20;99.90
10312;DHT22;5201;48.776;9.128;2022-11-04T17:13:28;11.30;99.90
10312;DHT22;5201;48.776;9.128;2022-11-04T17:15:54;11.20;99.90
10312;DHT22;5201;48.776;9.128;2022-11-04T17:18:19;11.40;99.90
10312;DHT22;5201;48.776;9.128;2022-11-04T17:20:50;11.20;99.90
10312;DHT22;5201;48.776;9.128;2022-11-04T17:23:17;12.70;99.90
10312;DHT22;5201;48.776;9.128;2022-11-04T17:25:43;13.10;99.90
10312;DHT22;5201;48.776;9.128;2022-11-04T17:28:09;10.90;99.90
10312;DHT22;5201;48.776;9.128;2022-11-04T17:30:36;11.20;99.90
10312;DHT22;5201;48.776;9.128;2022-11-04T17:33:02;11.60;99.90
10312;DHT22;5201;48.776;9.128;2022-11-04T17:35:38;11.30;99.90
10312;DHT22;5201;48.776;9.128;2022-11-04T17:38:04;11.10;99.90
10312;DHT22;5201;48.776;9.128;2022-11-04T17:40:29;12.30;99.90
10312;DHT22;5201;48.776;9.128;2022-11-04T17:42:55;11.60;99.90
10312;DHT22;5201;48.776;9.128;2022-11-04T17:45:41;11.10;99.90
10312;DHT22;5201;48.776;9.128;2022-11-04T17:48:07;11.50;99.90
10312;DHT22;5201;48.776;9.128;2022-11-04T17:50:34;11.20;99.90
10312;DHT22;5201;48.776;9.128;2022-11-04T17:53:01;11.20;99.90
10312;DHT22;5201;48.776;9.128;2022-11-04T17:55:27;10.90;99.90
10312;DHT22;5201;48.776;9.128;2022-11-04T17:57:52;10.80;99.90
10312;DHT22;5201;48.776;9.128;2022-11-04T18:00:18;11.10;99.90
10312;DHT22;5201;48.776;9.128;2022-11-04T18:02:48;11.20;99.90
10312;DHT22;5201;48.776;9.128;2022-11-04T18:05:14;11.50;99.90
10312;DHT22;5201;48.776;9.128;2022-11-04T18:07:39;11.40;99.90
10312;DHT22;5201;48.776;9.128;2022-11-04T18:10:07;11.40;99.90
10312;DHT22;5201;48.776;9.128;2022-11-04T18:12:32;11.50;99.90
10312;DHT22;5201;48.776;9.128;2022-11-04T18:15:02;11.70;99.90
10312;DHT22;5201;48.776;9.128;2022-11-04T18:17:28;11.40;99.90
10312;DHT22;5201;48.776;9.128;2022-11-04T18:19:53;12.00;99.90